Time;durP1;ratioP1;P1;durP2;ratioP2;P2;SDS_P1;SDS_P2;PMS_P1;PMS_P2;Temp;Humidity;BMP_temperature;BMP_pressure;BME280_temperature;BME280_humidity;BME280_pressure;Samples;Min_cycle;Max_cycle;Signal;HPM_P1;HPM_P2
2022/08/10 00:01:30;;;;;;;4.32;2.88;;;16.90;91.20;;;;;;4976717;28;20110;-86
2022/08/10 00:03:56;;;;;;;6.78;3.00;;;16.90;91.40;;;;;;4994358;28;20029;-84
2022/08/10 00:06:21;;;;;;;3.88;2.75;;;16.80;91.60;;;;;;4977583;28;20027;-84
2022/08/10 00:08:47;;;;;;;7.28;2.92;;;16.80;91.80;;;;;;4978530;28;20109;-86
2022/08/10 00:11:13;;;;;;;5.68;2.83;;;16.80;91.90;;;;;;4999400;28;20379;-85
2022/08/10 00:13:38;;;;;;;3.60;2.60;;;16.70;92.10;;;;;;4992230;28;20026;-85
2022/08/10 00:16:05;;;;;;;4.97;2.78;;;16.60;92.30;;;;;;4990208;28;20480;-84
2022/08/10 00:18:31;;;;;;;4.97;2.25;;;16.40;92.60;;;;;;4990065;28;20034;-85
2022/08/10 00:20:56;;;;;;;7.80;3.10;;;16.40;92.90;;;;;;4987406;28;20050;-84
2022/08/10 00:23:22;;;;;;;4.97;2.80;;;16.30;93.20;;;;;;4984772;28;20022;-87
2022/08/10 00:25:48;;;;;;;6.55;3.08;;;16.20;93.50;;;;;;4980150;28;20037;-86
2022/08/10 00:28:14;;;;;;;5.55;2.83;;;16.10;93.70;;;;;;4976405;28;20022;-86
2022/08/10 00:30:39;;;;;;;4.45;3.20;;;16.10;94.00;;;;;;4976223;28;20037;-86
2022/08/10 00:33:05;;;;;;;4.63;2.65;;;16.00;94.30;;;;;;4975535;28;20029;-86
2022/08/10 00:35:31;;;;;;;4.32;3.03;;;15.90;94.60;;;;;;4975631;28;20038;-87
2022/08/10 00:37:57;;;;;;;4.53;3.00;;;15.80;94.90;;;;;;4992953;28;20054;-85
2022/08/10 00:40:23;;;;;;;3.13;2.75;;;15.80;95.30;;;;;;4974365;28;20054;-85
2022/08/10 00:42:49;;;;;;;9.90;3.00;;;15.70;95.80;;;;;;4974916;28;20030;-85
2022/08/10 00:45:14;;;;;;;4.38;3.10;;;15.70;96.20;;;;;;4974903;28;20081;-86
2022/08/10 00:47:40;;;;;;;5.57;3.30;;;15.70;96.50;;;;;;4974869;28;20030;-86
2022/08/10 00:50:07;;;;;;;6.10;2.83;;;15.70;96.80;;;;;;4974410;28;20042;-85
2022/08/10 00:52:35;;;;;;;2.80;2.53;;;15.60;97.10;;;;;;4974952;28;20092;-85
2022/08/10 00:55:03;;;;;;;4.25;2.70;;;15.50;97.40;;;;;;4974748;28;20022;-85
2022/08/10 00:57:30;;;;;;;4.07;2.80;;;15.50;97.90;;;;;;4974726;28;20037;-86
2022/08/10 00:59:55;;;;;;;7.38;2.80;;;15.50;98.30;;;;;;4974430;28;20086;-85
2022/08/10 01:02:21;;;;;;;6.53;2.90;;;15.40;98.70;;;;;;4974347;28;20026;-85
2022/08/10 01:04:47;;;;;;;4.35;2.72;;;15.40;99.10;;;;;;4974267;28;20122;-84
2022/08/10 01:07:44;;;;;;;4.57;3.50;;;15.30;99.50;;;;;;4974197;28;20065;-85
2022/08/10 01:10:13;;;;;;;6.88;2.95;;;15.30;99.90;;;;;;4974508;28;20022;-86
2022/08/10 01:12:43;;;;;;;7.47;2.72;;;15.20;99.90;;;;;;4974611;28;20033;-85
2022/08/10 01:15:19;;;;;;;5.70;3.13;;;15.20;99.90;;;;;;4974354;28;20137;-85
2022/08/10 01:18:01;;;;;;;5.53;3.10;;;15.10;99.90;;;;;;4974695;28;20029;-86
2022/08/10 01:20:59;;;;;;;9.90;3.13;;;15.10;99.90;;;;;;4974475;28;20121;-85
2022/08/10 01:23:53;;;;;;;5.82;3.05;;;15.00;99.90;;;;;;4974356;28;20034;-86
2022/08/10 01:26:53;;;;;;;6.13;3.08;;;15.00;99.90;;;;;;4974143;28;20507;-86
2022/08/10 01:29:40;;;;;;;5.78;3.20;;;15.00;99.90;;;;;;4973540;28;20058;-86
2022/08/10 01:32:08;;;;;;;3.90;3.00;;;14.90;99.90;;;;;;4973973;28;20081;-85
2022/08/10 01:34:54;;;;;;;5.15;2.63;;;14.90;99.90;;;;;;4974737;28;20081;-87
2022/08/10 01:37:25;;;;;;;7.82;3.03;;;14.90;99.90;;;;;;4975228;28;20026;-86
2022/08/10 01:39:56;;;;;;;4.95;3.00;;;14.90;99.90;;;;;;4975116;28;20045;-84
2022/08/10 01:42:23;;;;;;;5.25;3.03;;;14.80;99.90;;;;;;4975251;28;20100;-85
2022/08/10 01:44:55;;;;;;;6.95;3.10;;;14.80;99.90;;;;;;4974377;28;20057;-85
2022/08/10 01:50:37;;;;;;;5.13;3.22;;;14.70;99.90;;;;;;4992664;28;20197;-86
2022/08/10 01:53:08;;;;;;;5.05;2.90;;;14.60;99.90;;;;;;4965811;28;20101;-86
2022/08/10 01:55:33;;;;;;;;;;;14.60;99.90;;;;;;4978443;28;20030;-85
2022/08/10 01:58:03;;;;;;;6.70;3.60;;;14.50;99.90;;;;;;4977705;28;20045;-84
2022/08/10 02:00:32;;;;;;;5.63;3.22;;;14.50;99.90;;;;;;4978336;28;20038;-85
2022/08/10 02:03:00;;;;;;;4.97;3.00;;;14.50;99.90;;;;;;4979605;28;20504;-85
2022/08/10 02:05:28;;;;;;;4.95;3.00;;;14.50;99.90;;;;;;4991258;28;20403;-84
2022/08/10 02:07:56;;;;;;;4.70;2.80;;;14.40;99.90;;;;;;4973727;28;20093;-85
2022/08/10 02:10:24;;;;;;;3.40;2.75;;;14.40;99.90;;;;;;4974007;28;20081;-85
2022/08/10 02:12:55;;;;;;;3.40;2.95;;;14.30;99.90;;;;;;4991108;28;20034;-84
2022/08/10 02:15:22;;;;;;;;;;;14.30;99.90;;;;;;4974163;28;20129;-85
2022/08/10 02:17:52;;;;;;;3.88;3.05;;;14.30;99.90;;;;;;4973388;28;20278;-85
2022/08/10 02:20:21;;;;;;;9.73;3.50;;;14.20;99.90;;;;;;4990893;28;20023;-86
2022/08/10 02:22:50;;;;;;;7.32;2.97;;;14.20;99.90;;;;;;4973660;28;20054;-86
2022/08/10 02:25:18;;;;;;;5.93;3.00;;;14.20;99.90;;;;;;4973645;28;20027;-85
2022/08/10 02:27:45;;;;;;;8.63;3.00;;;14.10;99.90;;;;;;4974010;28;20027;-85
2022/08/10 02:30:11;;;;;;;6.40;3.15;;;14.10;99.90;;;;;;4973631;28;20173;-86
2022/08/10 02:32:38;;;;;;;4.80;3.28;;;14.10;99.90;;;;;;4973539;28;20030;-85
2022/08/10 02:35:06;;;;;;;5.20;3.17;;;14.00;99.90;;;;;;4973487;28;20504;-85
2022/08/10 02:37:35;;;;;;;5.40;3.22;;;14.00;99.90;;;;;;4973589;28;20033;-85
2022/08/10 02:40:01;;;;;;;3.97;2.80;;;13.90;99.90;;;;;;4973740;28;20030;-85
2022/08/10 02:42:51;;;;;;;4.10;3.08;;;13.90;99.90;;;;;;4973182;28;20030;-86
2022/08/10 02:45:27;;;;;;;;;;;13.90;99.90;;;;;;4973749;28;20039;-85
2022/08/10 02:48:04;;;;;;;5.13;3.15;;;13.80;99.90;;;;;;4973401;28;19977;-85
2022/08/10 02:50:39;;;;;;;5.28;3.20;;;13.70;99.90;;;;;;4973366;28;20142;-85
2022/08/10 02:53:12;;;;;;;4.38;2.80;;;13.70;99.90;;;;;;4973291;28;20037;-86
2022/08/10 02:55:49;;;;;;;6.30;3.55;;;13.60;99.90;;;;;;4973739;28;20093;-86
2022/08/10 02:58:24;;;;;;;4.72;3.20;;;13.60;99.90;;;;;;4994904;28;20113;-86
2022/08/10 03:00:54;;;;;;;5.78;3.65;;;13.60;99.90;;;;;;4976764;28;20133;-85
2022/08/10 03:03:27;;;;;;;4.80;3.63;;;13.50;99.90;;;;;;4976782;28;20018;-85
2022/08/10 03:05:58;;;;;;;4.75;3.75;;;13.50;99.90;;;;;;4976355;28;20483;-84
2022/08/10 03:08:29;;;;;;;6.65;3.45;;;13.40;99.90;;;;;;4976752;28;20026;-83
2022/08/10 03:11:00;;;;;;;5.15;3.55;;;13.50;99.90;;;;;;4976600;28;20061;-85
2022/08/10 03:13:27;;;;;;;4.45;3.28;;;13.40;99.90;;;;;;4976686;28;20460;-85
2022/08/10 03:15:54;;;;;;;5.65;3.10;;;13.40;99.90;;;;;;4993714;28;20498;-85
2022/08/10 03:18:23;;;;;;;6.80;3.35;;;13.30;99.90;;;;;;4978273;28;20488;-87
2022/08/10 03:20:51;;;;;;;7.63;3.40;;;13.30;99.90;;;;;;4976891;28;20104;-83
2022/08/10 03:23:20;;;;;;;4.00;3.30;;;13.30;99.90;;;;;;4977918;28;20046;-84
2022/08/10 03:25:48;;;;;;;7.45;4.25;;;13.30;99.90;;;;;;4976785;28;20030;-86
2022/08/10 03:28:15;;;;;;;7.57;3.63;;;13.20;99.90;;;;;;4976678;28;20469;-85
2022/08/10 03:30:42;;;;;;;7.30;3.53;;;13.20;99.90;;;;;;4976540;28;20041;-85
2022/08/10 03:33:10;;;;;;;6.53;4.20;;;13.10;99.90;;;;;;4976313;28;20069;-85
2022/08/10 03:35:36;;;;;;;5.95;3.78;;;13.00;99.90;;;;;;4976392;28;20052;-84
2022/08/10 03:38:02;;;;;;;6.93;4.57;;;13.00;99.90;;;;;;4976114;28;20026;-85
2022/08/10 03:40:36;;;;;;;5.60;3.88;;;13.00;99.90;;;;;;4976336;28;20027;-85
2022/08/10 03:43:05;;;;;;;7.32;3.80;;;12.90;99.90;;;;;;4977010;28;20045;-84
2022/08/10 03:45:32;;;;;;;5.88;3.47;;;12.90;99.90;;;;;;4977590;28;20022;-85
2022/08/10 03:48:00;;;;;;;4.32;3.08;;;12.90;99.90;;;;;;4977342;28;20476;-84
2022/08/10 03:50:27;;;;;;;7.35;3.45;;;12.90;99.90;;;;;;4999052;28;20074;-84
2022/08/10 03:52:54;;;;;;;4.22;3.47;;;12.90;99.90;;;;;;4989596;28;20106;-84
2022/08/10 03:55:21;;;;;;;5.85;3.40;;;12.90;99.90;;;;;;4991298;28;20058;-83
2022/08/10 03:57:48;;;;;;;6.72;3.60;;;12.80;99.90;;;;;;4991958;28;20146;-84
2022/08/10 04:00:17;;;;;;;6.68;3.28;;;12.80;99.90;;;;;;4990720;28;20045;-85
2022/08/10 04:02:45;;;;;;;4.82;3.65;;;12.80;99.90;;;;;;4985716;28;20033;-83
2022/08/10 04:05:16;;;;;;;4.35;3.25;;;12.80;99.90;;;;;;4984040;28;20026;-83
2022/08/10 04:07:46;;;;;;;4.63;3.72;;;12.80;99.90;;;;;;4980621;28;20042;-85
2022/08/10 04:10:13;;;;;;;6.30;3.33;;;12.80;99.90;;;;;;4962738;28;20042;-84
2022/08/10 04:12:39;;;;;;;11.73;4.35;;;12.70;99.90;;;;;;4977612;28;20041;-83
2022/08/10 04:15:05;;;;;;;5.25;3.67;;;12.70;99.90;;;;;;4994250;28;20019;-85
2022/08/10 04:17:31;;;;;;;7.85;4.18;;;12.60;99.90;;;;;;4976041;28;20054;-85
2022/08/10 04:19:59;;;;;;;11.40;4.60;;;12.60;99.90;;;;;;4976454;28;20061;-85
2022/08/10 04:22:27;;;;;;;5.85;4.00;;;12.50;99.90;;;;;;4975840;28;20035;-86
2022/08/10 04:24:59;;;;;;;8.43;4.25;;;12.50;99.90;;;;;;4975325;28;20042;-85
2022/08/10 04:27:26;;;;;;;8.15;3.92;;;12.50;99.90;;;;;;4975236;28;20556;-85
2022/08/10 04:29:54;;;;;;;5.80;3.60;;;12.40;99.90;;;;;;4975373;28;20035;-84
2022/08/10 04:32:22;;;;;;;7.47;3.75;;;12.40;99.90;;;;;;4974407;28;20190;-85
2022/08/10 04:34:50;;;;;;;7.50;5.18;;;12.30;99.90;;;;;;4974737;28;20081;-86
2022/08/10 04:37:18;;;;;;;6.55;3.97;;;12.30;99.90;;;;;;4975446;28;20023;-85
2022/08/10 04:39:44;;;;;;;6.38;3.67;;;12.30;99.90;;;;;;4975343;28;20036;-86
2022/08/10 04:42:09;;;;;;;5.63;3.70;;;12.30;99.90;;;;;;4975270;28;20030;-85
2022/08/10 04:44:35;;;;;;;9.55;4.03;;;12.20;99.90;;;;;;4974783;28;20030;-85
2022/08/10 04:47:01;;;;;;;7.32;4.00;;;12.30;99.90;;;;;;4992121;28;20034;-85
2022/08/10 04:49:27;;;;;;;6.50;4.00;;;12.20;99.90;;;;;;4974516;28;20039;-85
2022/08/10 04:51:52;;;;;;;9.18;3.90;;;12.20;99.90;;;;;;4975321;28;20037;-85
2022/08/10 04:54:18;;;;;;;5.88;3.85;;;12.20;99.90;;;;;;4992545;28;20052;-86
2022/08/10 04:56:43;;;;;;;6.13;3.92;;;12.20;99.90;;;;;;4975161;28;20484;-85
2022/08/10 04:59:10;;;;;;;5.13;3.58;;;12.20;99.90;;;;;;4975259;28;20680;-85
2022/08/10 05:01:38;;;;;;;6.93;4.25;;;12.30;99.90;;;;;;4974724;28;20104;-85
2022/08/10 05:04:04;;;;;;;9.35;4.38;;;12.20;99.90;;;;;;4974885;28;20111;-85
2022/08/10 05:06:29;;;;;;;6.88;4.05;;;12.20;99.90;;;;;;4974991;28;20159;-85
2022/08/10 05:08:55;;;;;;;7.97;4.38;;;12.20;99.90;;;;;;4974643;28;20019;-86
2022/08/10 05:11:21;;;;;;;7.63;3.97;;;12.20;99.90;;;;;;4975061;28;20037;-85
2022/08/10 05:13:46;;;;;;;7.70;4.75;;;12.10;99.90;;;;;;4975109;28;20036;-85
2022/08/10 05:16:12;;;;;;;5.22;3.85;;;12.10;99.90;;;;;;4974425;28;20531;-86
2022/08/10 05:18:38;;;;;;;7.20;4.68;;;12.10;99.90;;;;;;4973855;28;20076;-85
2022/08/10 05:21:04;;;;;;;7.18;4.68;;;12.00;99.90;;;;;;4974413;28;20440;-85
2022/08/10 05:23:30;;;;;;;11.18;4.15;;;12.00;99.90;;;;;;4974467;28;20018;-84
2022/08/10 05:25:55;;;;;;;5.88;4.28;;;12.00;99.90;;;;;;4974393;28;20118;-87
2022/08/10 05:28:21;;;;;;;8.10;4.60;;;12.00;99.90;;;;;;4974371;28;20038;-83
2022/08/10 05:30:47;;;;;;;8.63;4.65;;;12.00;99.90;;;;;;4974016;28;20030;-85
2022/08/10 05:33:13;;;;;;;6.57;4.35;;;12.00;99.90;;;;;;4974142;28;20022;-85
2022/08/10 05:35:39;;;;;;;9.38;4.30;;;12.00;99.90;;;;;;4974622;28;20124;-85
2022/08/10 05:38:06;;;;;;;5.32;4.47;;;12.10;99.90;;;;;;4974591;28;20106;-85
2022/08/10 05:40:34;;;;;;;9.10;4.80;;;12.10;99.90;;;;;;4973799;28;20030;-86
2022/08/10 05:43:00;;;;;;;7.70;4.38;;;12.00;99.90;;;;;;4972470;28;20068;-85
2022/08/10 05:45:26;;;;;;;9.02;4.25;;;12.10;99.90;;;;;;4975399;28;20054;-85
2022/08/10 05:47:53;;;;;;;8.13;4.30;;;12.10;99.90;;;;;;4975240;28;20100;-86
2022/08/10 05:50:25;;;;;;;11.20;4.57;;;12.00;99.90;;;;;;4973831;28;20046;-85
2022/08/10 05:52:51;;;;;;;10.18;4.15;;;12.10;99.90;;;;;;4973378;28;20026;-85
2022/08/10 05:55:17;;;;;;;8.40;4.20;;;12.10;99.90;;;;;;4973411;28;20137;-85
2022/08/10 05:57:44;;;;;;;8.20;4.32;;;12.10;99.90;;;;;;4973362;28;20019;-85
2022/08/10 06:00:13;;;;;;;6.45;3.80;;;12.20;99.90;;;;;;4989603;28;20074;-85
2022/08/10 06:02:48;;;;;;;11.80;4.40;;;12.20;99.90;;;;;;4965571;28;20608;-85
2022/08/10 06:05:26;;;;;;;9.02;4.20;;;12.30;99.90;;;;;;4973765;28;20030;-85
2022/08/10 06:08:04;;;;;;;7.82;4.25;;;12.40;99.90;;;;;;4973521;28;20030;-86
2022/08/10 06:10:32;;;;;;;6.15;4.20;;;12.40;99.90;;;;;;4963760;28;20065;-86
2022/08/10 06:15:46;;;;;;;5.07;3.88;;;12.50;99.90;;;;;;4991786;28;20065;-86
2022/08/10 06:18:14;;;;;;;8.43;4.63;;;12.60;99.90;;;;;;4973561;28;20031;-86
2022/08/10 06:20:40;;;;;;;10.60;4.50;;;12.60;99.90;;;;;;4973719;28;20171;-85
2022/08/10 06:23:06;;;;;;;7.80;4.43;;;12.60;99.90;;;;;;4973407;28;20476;-85
2022/08/10 06:25:32;;;;;;;8.02;4.43;;;12.70;99.90;;;;;;4973430;28;20053;-85
2022/08/10 06:27:59;;;;;;;8.63;4.60;;;12.80;99.90;;;;;;4973830;28;20034;-86
2022/08/10 06:30:27;;;;;;;9.65;4.68;;;12.80;99.90;;;;;;4992998;28;20022;-85
2022/08/10 06:32:56;;;;;;;8.43;4.70;;;12.80;99.90;;;;;;4977336;28;20081;-86
2022/08/10 06:35:26;;;;;;;7.35;4.43;;;12.90;99.90;;;;;;4978164;28;20027;-85
2022/08/10 06:37:54;;;;;;;6.53;4.47;;;13.00;99.90;;;;;;4978938;28;20026;-86
2022/08/10 06:40:24;;;;;;;8.02;2.88;;;13.00;99.90;;;;;;4967986;28;20042;-91
2022/08/10 06:42:51;;;;;;;4.25;3.63;;;13.10;99.90;;;;;;4997676;28;20093;-87
2022/08/10 06:45:30;;;;;;;4.63;3.42;;;13.30;99.90;;;;;;4997631;28;20034;-86
2022/08/10 06:48:09;;;;;;;6.90;3.20;;;13.50;99.90;;;;;;4979130;28;20057;-88
2022/08/10 06:50:38;;;;;;;5.10;2.97;;;13.60;99.90;;;;;;4976956;28;20411;-86
2022/08/10 06:53:14;;;;;;;4.45;3.08;;;13.90;99.90;;;;;;4979327;28;20023;-86
2022/08/10 06:55:45;;;;;;;3.70;3.08;;;14.00;99.90;;;;;;4978512;28;20090;-86
2022/08/10 06:58:13;;;;;;;3.75;3.15;;;14.10;99.90;;;;;;4990546;28;20345;-86
2022/08/10 07:00:41;;;;;;;4.35;3.17;;;14.30;99.90;;;;;;4999406;28;20041;-86
2022/08/10 07:03:10;;;;;;;7.13;3.60;;;14.40;99.90;;;;;;4978826;28;20163;-86
2022/08/10 07:05:40;;;;;;;5.68;3.28;;;14.50;99.90;;;;;;4981759;28;20030;-88
2022/08/10 07:08:07;;;;;;;7.00;3.40;;;14.70;99.90;;;;;;4978755;28;20019;-85
2022/08/10 07:10:35;;;;;;;3.25;2.70;;;14.80;99.90;;;;;;4982150;28;20152;-86
2022/08/10 07:13:02;;;;;;;4.03;3.35;;;14.90;99.90;;;;;;4986124;28;20024;-87
2022/08/10 07:15:29;;;;;;;6.60;3.13;;;15.00;99.90;;;;;;4998833;28;20102;-87
2022/08/10 07:17:57;;;;;;;3.60;3.10;;;15.10;99.90;;;;;;4980943;28;20031;-86
2022/08/10 07:20:25;;;;;;;6.43;3.08;;;15.20;99.90;;;;;;4982637;28;20472;-89
2022/08/10 07:22:52;;;;;;;6.95;3.38;;;15.30;99.90;;;;;;4985620;28;20030;-89
2022/08/10 07:25:24;;;;;;;7.28;2.95;;;15.40;99.90;;;;;;4978810;28;20045;-90
2022/08/10 07:27:52;;;;;;;4.55;3.13;;;15.50;99.90;;;;;;4998147;28;20030;-89
2022/08/10 07:30:17;;;;;;;7.50;3.00;;;15.50;99.90;;;;;;4980170;28;20057;-89
2022/08/10 07:32:46;;;;;;;7.40;3.20;;;15.70;99.90;;;;;;4985404;28;20027;-90
2022/08/10 07:35:14;;;;;;;4.20;3.08;;;15.70;99.90;;;;;;4993697;28;20029;-89
2022/08/10 07:37:41;;;;;;;8.43;3.97;;;15.80;99.90;;;;;;4990641;28;20022;-91
2022/08/10 07:40:08;;;;;;;4.75;3.00;;;15.90;99.90;;;;;;4992609;28;20027;-86
2022/08/10 07:42:36;;;;;;;5.47;3.05;;;16.00;99.90;;;;;;4997115;28;20038;-88
2022/08/10 07:45:04;;;;;;;4.28;3.38;;;16.10;99.90;;;;;;5014966;28;20065;-90
2022/08/10 07:47:33;;;;;;;5.18;4.00;;;16.20;99.90;;;;;;4995062;28;20081;-90
2022/08/10 07:50:04;;;;;;;5.70;3.38;;;16.30;99.90;;;;;;4991344;28;20073;-90
2022/08/10 07:52:33;;;;;;;6.63;3.38;;;16.50;99.90;;;;;;4991766;28;20065;-90
2022/08/10 07:55:02;;;;;;;4.05;3.00;;;16.60;99.90;;;;;;4979416;28;20057;-89
2022/08/10 07:57:31;;;;;;;7.07;3.95;;;16.70;99.90;;;;;;4984094;28;20014;-89
2022/08/10 08:00:04;;;;;;;8.32;4.03;;;16.80;99.90;;;;;;4997607;28;20109;-88
2022/08/10 08:02:33;;;;;;;9.07;4.25;;;17.00;99.90;;;;;;4983466;28;20022;-89
2022/08/10 08:05:06;;;;;;;6.85;3.50;;;17.10;99.90;;;;;;4985067;28;20026;-90
2022/08/10 08:07:35;;;;;;;11.40;4.13;;;17.30;99.90;;;;;;4982018;28;20038;-88
2022/08/10 08:10:03;;;;;;;5.85;3.67;;;17.50;99.90;;;;;;4976781;28;20039;-89
2022/08/10 08:12:31;;;;;;;6.47;4.25;;;17.70;99.90;;;;;;4979217;28;20089;-90
2022/08/10 08:14:58;;;;;;;4.75;3.35;;;17.80;99.90;;;;;;4979448;28;20022;-89
2022/08/10 08:17:25;;;;;;;7.35;3.70;;;18.00;99.90;;;;;;4988758;28;20015;-89
2022/08/10 08:19:54;;;;;;;8.93;3.83;;;18.10;99.90;;;;;;4992435;28;20027;-89
2022/08/10 08:22:21;;;;;;;7.05;3.20;;;18.30;99.90;;;;;;4988488;28;20034;-89
2022/08/10 08:24:48;;;;;;;10.00;3.22;;;18.40;99.90;;;;;;5003191;28;20030;-89
2022/08/10 08:27:16;;;;;;;8.35;3.42;;;18.60;99.90;;;;;;4986391;28;20044;-88
2022/08/10 08:29:45;;;;;;;8.88;3.55;;;18.80;99.90;;;;;;4989101;28;20117;-91
2022/08/10 08:32:12;;;;;;;7.80;3.17;;;19.00;99.90;;;;;;5005131;28;20030;-89
2022/08/10 08:34:41;;;;;;;6.88;2.78;;;19.20;99.90;;;;;;4981281;28;20023;-90
2022/08/10 08:37:09;;;;;;;6.95;3.03;;;19.40;99.90;;;;;;4982705;28;20045;-92
2022/08/10 08:39:35;;;;;;;6.95;3.03;;;19.60;99.90;;;;;;4986228;28;20080;-88
2022/08/10 08:42:22;;;;;;;5.82;2.72;;;19.80;99.90;;;;;;4987652;28;20041;-88
2022/08/10 08:45:22;;;;;;;11.07;3.20;;;20.00;99.90;;;;;;5003371;28;20042;-89
2022/08/10 08:48:23;;;;;;;7.03;2.80;;;20.30;99.90;;;;;;5000004;28;20557;-89
2022/08/10 08:51:24;;;;;;;4.28;2.55;;;20.60;99.90;;;;;;4983899;28;20085;-91
2022/08/10 08:53:56;;;;;;;;;;;20.80;99.90;;;;;;4976816;28;20029;-89
2022/08/10 08:57:00;;;;;;;8.23;3.17;;;21.00;99.40;;;;;;4983813;28;20271;-89
2022/08/10 08:59:31;;;;;;;5.13;3.03;;;21.30;98.50;;;;;;4975726;28;20037;-89
2022/08/10 09:02:16;;;;;;;6.68;2.80;;;21.50;97.60;;;;;;4996419;28;20487;-89
2022/08/10 09:04:58;;;;;;;4.80;2.72;;;21.70;96.70;;;;;;4989210;28;20027;-91
2022/08/10 09:07:27;;;;;;;5.85;2.80;;;22.00;95.70;;;;;;5001821;28;20025;-91
2022/08/10 09:10:18;;;;;;;10.00;2.60;;;22.20;95.20;;;;;;4988894;28;20038;-90
2022/08/10 09:12:47;;;;;;;5.63;3.05;;;22.40;94.10;;;;;;4980332;28;20094;-91
2022/08/10 09:15:59;;;;;;;5.95;2.38;;;22.70;93.40;;;;;;4976677;28;20060;-88
2022/08/10 09:18:50;;;;;;;4.97;2.80;;;22.90;92.30;;;;;;4948195;28;20069;-88
2022/08/10 09:21:23;;;;;;;7.80;2.83;;;23.10;91.60;;;;;;4986777;28;20046;-91
2022/08/10 09:23:57;;;;;;;6.38;2.70;;;23.40;91.00;;;;;;4980338;28;20037;-88
2022/08/10 09:26:48;;;;;;;8.60;2.65;;;23.50;90.30;;;;;;4990768;28;20098;-90
2022/08/10 09:29:28;;;;;;;7.75;2.75;;;23.70;88.90;;;;;;4975817;28;20073;-89
2022/08/10 09:32:22;;;;;;;8.82;2.80;;;23.90;86.90;;;;;;4992091;28;20049;-91
2022/08/10 09:35:07;;;;;;;8.35;2.60;;;24.10;85.40;;;;;;4989428;28;20041;-90
2022/08/10 09:37:44;;;;;;;8.60;2.45;;;24.30;83.40;;;;;;4984723;28;20057;-91
2022/08/10 09:40:23;;;;;;;10.00;2.70;;;24.50;82.30;;;;;;4961869;28;20050;-91
2022/08/10 09:43:08;;;;;;;11.35;2.70;;;24.70;81.00;;;;;;4960177;28;20042;-90
2022/08/10 09:45:46;;;;;;;6.07;2.30;;;24.90;79.70;;;;;;4986802;28;20129;-89
2022/08/10 09:48:38;;;;;;;6.70;2.50;;;25.10;78.80;;;;;;4982363;28;20037;-89
2022/08/10 09:51:30;;;;;;;8.07;2.40;;;25.30;77.40;;;;;;4965991;28;20110;-92
2022/08/10 09:54:06;;;;;;;5.10;2.08;;;25.50;76.00;;;;;;4975344;28;20129;-91
2022/08/10 09:57:00;;;;;;;4.18;2.00;;;25.60;75.10;;;;;;4978588;28;20019;-91
2022/08/10 09:59:39;;;;;;;7.63;2.20;;;25.70;74.30;;;;;;4978437;28;20041;-91
2022/08/10 10:02:26;;;;;;;7.13;2.42;;;25.80;73.80;;;;;;4964727;28;20034;-91
2022/08/10 10:05:26;;;;;;;5.32;2.10;;;26.00;72.80;;;;;;4959947;28;20027;-91
2022/08/10 10:08:20;;;;;;;3.92;2.20;;;26.10;71.80;;;;;;4966312;28;20038;-91
2022/08/10 10:11:15;;;;;;;5.88;2.17;;;26.30;70.80;;;;;;4961143;28;20097;-91
2022/08/10 10:14:07;;;;;;;8.90;2.45;;;26.40;69.80;;;;;;4961672;28;20027;-92
2022/08/10 10:17:14;;;;;;;13.57;2.10;;;26.60;69.30;;;;;;4960864;28;20034;-91
2022/08/10 10:20:20;;;;;;;5.07;2.17;;;26.70;67.80;;;;;;4969418;28;20602;-92
2022/08/10 10:23:23;;;;;;;5.38;2.03;;;26.90;67.00;;;;;;4959182;28;20043;-90
2022/08/10 10:25:58;;;;;;;7.75;2.00;;;27.20;66.20;;;;;;4957859;28;20404;-90
2022/08/10 10:28:39;;;;;;;5.95;1.83;;;27.40;64.70;;;;;;4967024;28;20025;-90
2022/08/10 10:31:08;;;;;;;6.88;1.90;;;27.50;64.00;;;;;;4967104;28;20136;-91
2022/08/10 10:34:04;;;;;;;8.65;2.05;;;27.70;63.60;;;;;;4962679;28;20019;-92
2022/08/10 10:36:31;;;;;;;4.13;2.10;;;27.80;63.00;;;;;;4971929;28;20027;-92
2022/08/10 10:39:00;;;;;;;5.22;2.33;;;28.00;62.50;;;;;;4979322;28;20037;-92
2022/08/10 10:41:47;;;;;;;9.10;2.40;;;28.10;62.10;;;;;;4964502;28;20528;-91
2022/08/10 10:44:45;;;;;;;5.53;2.25;;;28.30;61.80;;;;;;4962103;28;20035;-89
2022/08/10 10:47:26;;;;;;;5.47;1.92;;;28.40;61.50;;;;;;4949758;28;20130;-92
2022/08/10 10:50:13;;;;;;;4.72;2.05;;;28.60;60.70;;;;;;4967106;28;20508;-90
2022/08/10 10:53:14;;;;;;;6.05;1.75;;;28.80;60.20;;;;;;4968804;28;20023;-91
2022/08/10 10:56:01;;;;;;;7.95;1.67;;;28.90;58.80;;;;;;4971314;28;20541;-90
2022/08/10 10:59:22;;;;;;;8.27;2.10;;;29.00;58.10;;;;;;4968213;28;20054;-90
2022/08/10 11:02:31;;;;;;;3.42;1.73;;;29.10;57.20;;;;;;4921373;29;20054;-90
2022/08/10 11:05:15;;;;;;;5.10;1.95;;;29.30;57.00;;;;;;4907140;29;20494;-89
2022/08/10 11:07:50;;;;;;;5.00;1.95;;;29.50;56.40;;;;;;4895537;29;20032;-90
2022/08/10 11:10:24;;;;;;;4.43;1.92;;;29.60;55.70;;;;;;4909541;29;20039;-90
2022/08/10 11:13:02;;;;;;;5.88;1.73;;;29.80;55.00;;;;;;4901312;29;20035;-89
2022/08/10 11:15:37;;;;;;;6.88;2.17;;;29.80;53.80;;;;;;4901740;29;20455;-90
2022/08/10 11:18:03;;;;;;;4.55;1.95;;;29.80;53.80;;;;;;4923548;29;20043;-92
2022/08/10 11:20:38;;;;;;;3.55;2.20;;;29.90;53.90;;;;;;4916191;29;20036;-90
2022/08/10 11:23:33;;;;;;;7.68;2.10;;;29.90;53.70;;;;;;4929139;29;20028;-92
2022/08/10 11:26:32;;;;;;;7.65;1.95;;;30.00;53.50;;;;;;4915602;29;20020;-91
2022/08/10 11:29:29;;;;;;;5.80;1.88;;;30.10;53.40;;;;;;4909999;29;20091;-93
2022/08/10 11:32:12;;;;;;;5.78;2.20;;;30.20;53.00;;;;;;4888297;29;20032;-94
2022/08/10 11:34:50;;;;;;;3.63;1.85;;;30.40;52.90;;;;;;4915154;29;20032;-91
2022/08/10 11:37:32;;;;;;;4.70;2.00;;;30.60;52.40;;;;;;4921869;29;20037;-91
2022/08/10 11:40:16;;;;;;;5.60;1.92;;;30.80;52.00;;;;;;4923264;29;20035;-92
2022/08/10 11:42:52;;;;;;;6.45;2.10;;;31.00;51.70;;;;;;4901465;29;20514;-91
2022/08/10 11:45:30;;;;;;;2.22;1.63;;;31.10;51.50;;;;;;4909176;29;20032;-92
2022/08/10 11:48:05;;;;;;;4.53;1.77;;;31.30;51.60;;;;;;4932895;29;20096;-92
2022/08/10 11:50:43;;;;;;;6.05;2.33;;;31.40;51.00;;;;;;4920436;29;20127;-93
2022/08/10 11:53:47;;;;;;;8.35;1.83;;;31.50;50.60;;;;;;4919704;29;20028;-92
2022/08/10 11:56:41;;;;;;;5.80;1.63;;;31.60;50.30;;;;;;4920740;29;20059;-92
2022/08/10 12:01:53;;;;;;;11.55;1.75;;;31.80;50.50;;;;;;4919535;29;20055;-91
2022/08/10 12:04:20;;;;;;;3.60;1.65;;;32.00;50.20;;;;;;4911316;29;20058;-94
2022/08/10 12:06:47;;;;;;;4.93;1.60;;;32.10;49.90;;;;;;4905135;29;20077;-92
2022/08/10 12:09:16;;;;;;;4.57;1.80;;;32.20;49.90;;;;;;4944929;28;20039;-93
2022/08/10 12:11:42;;;;;;;6.00;1.67;;;32.40;49.50;;;;;;4972630;28;20118;-93
2022/08/10 12:29:40;;;;;;;5.60;2.03;;;33.20;47.90;;;;;;5599534;23;20302;-93
2022/08/10 12:32:44;;;;;;;3.38;1.73;;;33.20;48.30;;;;;;4968691;28;20072;-95
2022/08/10 12:35:31;;;;;;;4.60;1.60;;;33.20;47.40;;;;;;4980111;28;20182;-94
2022/08/10 12:38:36;;;;;;;5.13;1.88;;;33.30;47.30;;;;;;4979426;28;20511;-92
2022/08/10 12:41:31;;;;;;;3.22;1.88;;;33.30;47.30;;;;;;4987685;28;20057;-91
2022/08/10 12:44:14;;;;;;;3.67;1.85;;;33.50;47.20;;;;;;4979069;28;20507;-94
2022/08/10 12:47:02;;;;;;;5.05;2.10;;;33.60;46.70;;;;;;4979710;28;20034;-90
2022/08/10 12:49:37;;;;;;;3.55;1.70;;;33.50;46.40;;;;;;4977801;28;20058;-92
2022/08/10 12:52:20;;;;;;;4.40;1.77;;;33.30;46.20;;;;;;4979770;28;20029;-92
2022/08/10 12:54:49;;;;;;;7.38;2.03;;;33.30;46.30;;;;;;4974578;28;20053;-92
2022/08/10 12:57:21;;;;;;;2.45;1.60;;;33.50;46.40;;;;;;4975260;28;20065;-92
2022/08/10 12:59:50;;;;;;;3.63;1.80;;;33.70;46.10;;;;;;4977370;28;20034;-91
2022/08/10 13:28:54;;;;;;;2.17;1.45;;;34.80;44.00;;;;;;5098992;23;20455;-93
2022/08/10 13:31:28;;;;;;;3.40;1.52;;;35.00;44.50;;;;;;4971362;28;20042;-93
2022/08/10 13:33:58;;;;;;;3.47;1.70;;;35.20;44.30;;;;;;4977447;28;20030;-93
2022/08/10 13:36:31;;;;;;;3.97;1.70;;;35.20;44.10;;;;;;4977249;28;20030;-93
2022/08/10 13:38:58;;;;;;;4.40;1.63;;;35.30;44.10;;;;;;4977514;28;20034;-92
2022/08/10 13:41:36;;;;;;;3.85;1.55;;;35.50;43.70;;;;;;4974465;28;20044;-92
2022/08/10 13:44:02;;;;;;;4.93;2.00;;;35.40;43.40;;;;;;4980425;28;20026;-93
2022/08/10 13:46:29;;;;;;;3.83;1.63;;;35.40;43.60;;;;;;4983780;28;20050;-92
2022/08/10 13:48:58;;;;;;;5.70;2.08;;;35.40;43.50;;;;;;5000356;28;20040;-93
2022/08/10 13:51:27;;;;;;;2.17;1.50;;;35.50;43.40;;;;;;5004510;28;20053;-92
2022/08/10 13:53:59;;;;;;;3.08;1.52;;;35.50;43.40;;;;;;5000107;28;20041;-92
2022/08/10 13:56:28;;;;;;;4.88;1.70;;;35.60;43.00;;;;;;4983207;28;20548;-94
2022/08/10 13:58:55;;;;;;;3.78;1.67;;;35.60;42.80;;;;;;4978068;28;20468;-93
2022/08/10 14:01:25;;;;;;;6.90;1.67;;;35.60;42.70;;;;;;4979064;28;20038;-93
2022/08/10 14:03:53;;;;;;;6.70;2.13;;;35.60;42.50;;;;;;4990925;28;20033;-94
2022/08/10 14:06:23;;;;;;;3.65;1.70;;;35.60;42.50;;;;;;4986683;28;20033;-95
2022/08/10 14:09:00;;;;;;;5.63;1.88;;;35.50;42.40;;;;;;4986043;28;20022;-93
2022/08/10 14:11:29;;;;;;;1.90;1.65;;;35.50;42.30;;;;;;4985954;28;20527;-91